createdAt,value
2018-11-05T00:03:00.903Z,99985.09
2018-11-05T00:08:05.376Z,99978.95
2018-11-05T00:13:09.911Z,99990.41
2018-11-05T00:18:14.952Z,99984.31
2018-11-05T00:23:19.173Z,99983.72
2018-11-05T00:28:23.744Z,99979.69
2018-11-05T00:33:28.689Z,99980.50
2018-11-05T00:38:33.377Z,99974.67
2018-11-05T00:43:51.423Z,99986.64
2018-11-05T00:48:56.291Z,99984.75
2018-11-05T00:54:01.423Z,99978.10
2018-11-05T00:59:05.969Z,99972.78
2018-11-05T01:04:11.276Z,99972.01
2018-11-05T01:09:17.245Z,99958.45
2018-11-05T01:14:22.423Z,99958.45
2018-11-05T01:19:27.054Z,99956.09
2018-11-05T01:24:32.106Z,99955.87
2018-11-05T01:29:36.837Z,99941.67
2018-11-05T01:34:41.410Z,99934.81
2018-11-05T01:39:46.656Z,99934.77
2018-11-05T01:44:51.259Z,99944.84
2018-11-05T01:49:55.882Z,99938.93
2018-11-05T01:55:00.694Z,99933.35
2018-11-05T02:00:07.170Z,99933.82
2018-11-05T02:05:12.444Z,99937.81
2018-11-05T02:10:19.176Z,99923.95
2018-11-05T02:15:24.343Z,99920.05
2018-11-05T02:20:28.696Z,99923.22
2018-11-05T02:25:33.544Z,99921.34
2018-11-05T02:30:37.909Z,99905.64
2018-11-05T02:35:44.091Z,99908.59
2018-11-05T02:40:48.555Z,99912.03
2018-11-05T02:45:55.994Z,99911.78
2018-11-05T02:51:03.687Z,99901.39
2018-11-05T02:56:09.101Z,99911.73
2018-11-05T03:01:14.173Z,99906.41
2018-11-05T03:06:18.389Z,99897.91
2018-11-05T03:11:23.305Z,99897.61
2018-11-05T03:16:28.708Z,99898.69
2018-11-05T03:21:34.365Z,99887.02
2018-11-05T03:26:39.174Z,99895.55
2018-11-05T03:31:43.483Z,99878.95
2018-11-05T03:36:47.880Z,99870.77
2018-11-05T03:41:53.440Z,99866.30
2018-11-05T03:46:57.718Z,99865.53
2018-11-05T03:52:02.267Z,99871.95
2018-11-05T03:57:06.667Z,99876.22
2018-11-05T04:02:11.145Z,99872.27
2018-11-05T04:07:19.138Z,99880.02
2018-11-05T04:12:23.704Z,99861.20
2018-11-05T04:17:28.339Z,99850.56
2018-11-05T04:22:33.111Z,99852.10
2018-11-05T04:27:38.577Z,99844.34
2018-11-05T04:32:44.219Z,99853.56
2018-11-05T04:37:49.317Z,99861.34
2018-11-05T04:42:53.925Z,99848.86
2018-11-05T04:47:58.445Z,99855.21
2018-11-05T04:53:02.997Z,99854.69
2018-11-05T04:58:07.504Z,99847.83
2018-11-05T05:03:12.019Z,99845.47
2018-11-05T05:08:16.823Z,99849.73
2018-11-05T05:13:21.169Z,99835.38
2018-11-05T05:18:25.843Z,99836.22
2018-11-05T05:29:02.756Z,99837.64
2018-11-05T05:34:07.558Z,99843.30
2018-11-05T05:39:12.021Z,99834.34
2018-11-05T05:44:16.583Z,99824.78
2018-11-05T05:49:21.293Z,99822.42
2018-11-05T05:54:26.571Z,99823.28
2018-11-05T05:59:31.168Z,99813.73
2018-11-05T06:04:35.502Z,99822.25
2018-11-05T06:09:39.985Z,99830.52
2018-11-05T06:14:44.376Z,99840.59
2018-11-05T06:19:48.909Z,99839.56
2018-11-05T06:24:53.338Z,99828.64
2018-11-05T06:29:58.049Z,99824.36
2018-11-05T06:35:02.967Z,99816.64
2018-11-05T06:40:08.633Z,99815.31
2018-11-05T06:45:22.836Z,99832.08
2018-11-05T06:50:27.602Z,99832.84
2018-11-05T06:55:38.141Z,99834.42
2018-11-05T07:00:42.993Z,99834.65
2018-11-05T07:05:47.870Z,99847.67
2018-11-05T07:10:52.613Z,99846.05
2018-11-05T07:15:57.290Z,99843.56
2018-11-05T07:21:01.785Z,99859.52
2018-11-05T07:26:07.659Z,99858.00
2018-11-05T07:31:12.187Z,99860.66
2018-11-05T07:36:17.447Z,99857.02
2018-11-05T07:41:22.053Z,99856.93
2018-11-05T07:46:26.941Z,99852.94
2018-11-05T07:51:31.388Z,99853.42
2018-11-05T07:56:35.963Z,99853.20
2018-11-05T08:01:40.440Z,99852.94
2018-11-05T08:06:44.814Z,99864.02
2018-11-05T08:11:49.293Z,99869.84
2018-11-05T08:16:53.673Z,99865.52
2018-11-05T08:21:58.165Z,99852.95
2018-11-05T08:27:02.924Z,99865.66
2018-11-05T08:32:08.455Z,99848.61
2018-11-05T08:37:14.506Z,99835.98
2018-11-05T08:42:19.635Z,99838.00
2018-11-05T08:47:24.307Z,99836.09
2018-11-05T08:58:05.627Z,99841.36
2018-11-05T09:03:10.445Z,99846.25
2018-11-05T09:08:15.661Z,99831.52
2018-11-05T09:13:20.806Z,99846.69
2018-11-05T09:18:25.363Z,99851.41
2018-11-05T09:23:29.888Z,99854.92
2018-11-05T09:28:34.357Z,99851.03
2018-11-05T09:33:38.851Z,99838.41
2018-11-05T09:38:44.521Z,99841.47
2018-11-05T09:43:49.099Z,99838.61
2018-11-05T09:48:53.989Z,99817.27
2018-11-05T09:54:03.699Z,99809.75
2018-11-05T09:59:08.693Z,99818.11
2018-11-05T10:04:13.214Z,99811.36
2018-11-05T10:09:18.457Z,99807.70
2018-11-05T10:14:25.190Z,99806.06
2018-11-05T10:19:29.785Z,99797.63
2018-11-05T10:24:35.835Z,99795.28
2018-11-05T10:29:41.458Z,99772.81
2018-11-05T10:34:46.260Z,99767.34
2018-11-05T10:39:51.216Z,99763.34
2018-11-05T10:44:56.868Z,99762.59
2018-11-05T10:50:01.527Z,99774.05
2018-11-05T10:55:06.228Z,99779.16
2018-11-05T11:00:24.516Z,99771.79
2018-11-05T11:05:30.881Z,99732.29
2018-11-05T11:10:35.664Z,99728.88
2018-11-05T11:15:40.925Z,99707.89
2018-11-05T11:20:46.168Z,99716.81
2018-11-05T11:25:50.813Z,99722.28
2018-11-05T11:30:56.051Z,99708.81
2018-11-05T11:36:01.858Z,99704.37
2018-11-05T11:41:08.025Z,99705.58
2018-11-05T11:46:16.866Z,99703.90
2018-11-05T11:51:22.112Z,99703.34
2018-11-05T11:56:26.859Z,99708.42
2018-11-05T12:01:38.140Z,99706.75
2018-11-05T12:06:42.665Z,99700.12
2018-11-05T12:11:48.020Z,99681.91
2018-11-05T12:16:54.173Z,99671.30
2018-11-05T12:21:59.197Z,99659.31
2018-11-05T12:27:05.155Z,99657.33
2018-11-05T12:32:11.730Z,99652.91
2018-11-05T12:37:16.668Z,99643.77
2018-11-05T12:42:26.554Z,99650.93
2018-11-05T12:47:32.980Z,99645.77
2018-11-05T12:52:44.027Z,99643.86
2018-11-05T12:57:49.279Z,99641.79
2018-11-05T13:03:12.444Z,99666.00
2018-11-05T13:08:16.994Z,99657.56
2018-11-05T13:13:27.054Z,99626.04
2018-11-05T13:18:32.478Z,99642.26
2018-11-05T13:23:45.206Z,99626.25
2018-11-05T13:28:50.122Z,99617.08
2018-11-05T13:33:57.876Z,99610.95
2018-11-05T13:39:06.383Z,99596.75
2018-11-05T13:44:12.380Z,99603.18
2018-11-05T13:49:21.459Z,99597.66
2018-11-05T13:54:29.470Z,99578.73
2018-11-05T13:59:37.938Z,99585.71
2018-11-05T14:04:45.290Z,99588.30
2018-11-05T14:09:51.942Z,99597.63
2018-11-05T14:14:57.802Z,99592.37
2018-11-05T14:20:03.388Z,99597.47
2018-11-05T14:25:12.326Z,99597.27
2018-11-05T14:30:17.678Z,99590.35
2018-11-05T14:35:22.563Z,99583.19
2018-11-05T14:40:31.297Z,99590.40
2018-11-05T14:45:41.073Z,99588.80
2018-11-05T14:50:46.703Z,99591.48
2018-11-05T14:55:51.698Z,99579.69
2018-11-05T15:00:56.483Z,99570.75
2018-11-05T15:06:10.731Z,99564.16
2018-11-05T15:11:15.757Z,99578.16
2018-11-05T15:16:29.976Z,99570.08
2018-11-05T15:21:34.581Z,99570.27
2018-11-05T15:26:49.094Z,99565.72
2018-11-05T15:31:54.136Z,99557.73
2018-11-05T15:37:08.484Z,99556.04
2018-11-05T15:42:14.676Z,99548.97
2018-11-05T15:47:21.246Z,99549.39
2018-11-05T15:52:27.480Z,99556.09
2018-11-05T15:57:32.987Z,99560.19
2018-11-05T16:02:57.352Z,99559.72
2018-11-05T16:08:02.746Z,99562.36
2018-11-05T16:13:07.842Z,99564.94
2018-11-05T16:18:17.516Z,99561.11
2018-11-05T16:23:23.730Z,99571.88
2018-11-05T16:28:28.371Z,99564.25
2018-11-05T16:33:34.431Z,99551.78
2018-11-05T16:38:39.873Z,99555.78
2018-11-05T16:43:50.912Z,99549.84
2018-11-05T16:48:55.854Z,99547.34
2018-11-05T16:54:06.251Z,99548.28
2018-11-05T16:59:11.435Z,99543.59
2018-11-05T17:04:27.504Z,99552.70
2018-11-05T17:09:41.087Z,99547.05
2018-11-05T17:14:48.266Z,99547.94
2018-11-05T17:19:55.238Z,99557.48
2018-11-05T17:25:09.103Z,99551.55
2018-11-05T17:30:18.238Z,99551.38
2018-11-05T17:35:29.159Z,99537.55
2018-11-05T17:40:36.654Z,99540.84
2018-11-05T17:45:48.031Z,99541.25
2018-11-05T17:51:07.974Z,99539.91
2018-11-05T17:56:16.778Z,99536.14
2018-11-05T18:06:25.677Z,99534.13
2018-11-05T18:11:34.536Z,99529.80
2018-11-05T18:16:48.168Z,99535.22
2018-11-05T18:27:27.356Z,99539.39
2018-11-05T18:38:28.944Z,99531.70
2018-11-05T18:43:57.500Z,99535.14
2018-11-05T18:49:14.639Z,99538.98
2018-11-05T19:21:11.760Z,99530.60
2018-11-05T19:26:19.091Z,99514.06
2018-11-05T19:31:27.476Z,99516.57
2018-11-05T19:36:33.406Z,99518.91
2018-11-05T19:41:40.773Z,99518.29
2018-11-05T19:46:47.015Z,99524.88
2018-11-05T19:51:52.578Z,99516.89
2018-11-05T19:57:18.216Z,99524.56
2018-11-05T20:02:41.852Z,99517.73
2018-11-05T20:07:49.386Z,99515.63
2018-11-05T20:13:08.634Z,99519.06
2018-11-05T20:18:25.851Z,99519.84
2018-11-05T20:23:34.982Z,99518.59
2018-11-05T20:28:46.816Z,99523.46
2018-11-05T20:33:52.171Z,99522.28
2018-11-05T20:38:59.613Z,99517.27
2018-11-05T20:44:22.886Z,99516.08
2018-11-05T20:49:27.652Z,99524.84
2018-11-05T20:54:32.464Z,99527.59
2018-11-05T20:59:37.164Z,99521.39
2018-11-05T21:04:43.088Z,99521.14
2018-11-05T21:09:47.580Z,99538.30
2018-11-05T21:14:52.516Z,99531.84
2018-11-05T21:19:57.746Z,99528.80
2018-11-05T21:25:03.143Z,99516.05
2018-11-05T21:30:10.034Z,99516.25
2018-11-05T21:35:15.813Z,99531.14
2018-11-05T21:40:20.802Z,99514.60
2018-11-05T21:45:25.284Z,99526.38
2018-11-05T21:50:29.844Z,99532.03
2018-11-05T21:55:34.710Z,99531.16
2018-11-05T22:00:40.051Z,99526.66
2018-11-05T22:05:44.423Z,99521.61
2018-11-05T22:10:50.461Z,99514.07
2018-11-05T22:15:54.950Z,99521.17
2018-11-05T22:20:59.682Z,99519.38
2018-11-05T22:26:04.142Z,99527.48
2018-11-05T22:31:08.858Z,99535.60
2018-11-05T22:36:13.485Z,99529.45
2018-11-05T22:41:17.883Z,99541.24
2018-11-05T22:46:22.147Z,99532.73
2018-11-05T22:51:27.076Z,99526.70
2018-11-05T22:56:35.751Z,99533.17
2018-11-05T23:01:46.127Z,99537.47
2018-11-05T23:06:52.506Z,99543.00
2018-11-05T23:11:57.401Z,99551.41
2018-11-05T23:17:02.965Z,99548.45
2018-11-05T23:22:07.777Z,99554.62
2018-11-05T23:27:12.318Z,99553.36
2018-11-05T23:32:16.791Z,99561.15
2018-11-05T23:37:21.389Z,99555.48
2018-11-05T23:42:44.377Z,99554.48
2018-11-05T23:47:49.908Z,99556.92
2018-11-05T23:52:59.764Z,99566.04
2018-11-05T23:58:05.171Z,99558.48
